Time;durP1;ratioP1;P1;durP2;ratioP2;P2;SDS_P1;SDS_P2;PMS_P1;PMS_P2;Temp;Humidity;BMP_temperature;BMP_pressure;BME280_temperature;BME280_humidity;BME280_pressure;Samples;Min_cycle;Max_cycle;Signal;HPM_P1;HPM_P2
2022/05/26 00:01:48;;;;;;;3.87;1.50;;;18.10;1.00;;;;;;4979418;28;20258;-68
2022/05/26 00:04:13;;;;;;;2.47;1.70;;;18.00;1.00;;;;;;5009032;23;20646;-71
2022/05/26 00:06:39;;;;;;;3.57;1.67;;;18.00;1.00;;;;;;4986549;28;20190;-72
2022/05/26 00:09:04;;;;;;;6.63;1.70;;;17.90;1.00;;;;;;4988259;28;20209;-71
2022/05/26 00:11:33;;;;;;;2.87;1.50;;;17.90;1.00;;;;;;4994186;28;20265;-71
2022/05/26 00:14:07;;;;;;;3.30;1.70;;;17.80;1.00;;;;;;4985537;28;20230;-72
2022/05/26 00:16:41;;;;;;;3.73;1.63;;;17.70;1.00;;;;;;4974827;28;20806;-72
2022/05/26 00:19:07;;;;;;;2.60;1.60;;;17.80;1.00;;;;;;4961377;28;20494;-72
2022/05/26 00:21:33;;;;;;;2.67;1.60;;;17.70;1.00;;;;;;4963480;28;20459;-72
2022/05/26 00:23:58;;;;;;;2.10;1.33;;;17.70;1.00;;;;;;4969251;28;20196;-72
2022/05/26 00:26:24;;;;;;;2.17;1.70;;;17.60;1.00;;;;;;4968865;28;20180;-71
2022/05/26 00:28:50;;;;;;;4.33;1.77;;;17.70;1.00;;;;;;4978741;28;20176;-72
2022/05/26 00:31:16;;;;;;;2.50;1.90;;;17.60;1.00;;;;;;4962394;28;20419;-71
2022/05/26 00:33:42;;;;;;;2.00;1.60;;;17.60;1.00;;;;;;4973912;28;20210;-72
2022/05/26 00:36:11;;;;;;;7.40;1.67;;;17.60;1.00;;;;;;4982061;28;20258;-72
2022/05/26 00:38:38;;;;;;;3.77;1.50;;;17.60;1.00;;;;;;4984941;28;20551;-71
2022/05/26 00:41:06;;;;;;;2.57;1.60;;;17.50;1.00;;;;;;4975460;28;20427;-71
2022/05/26 00:43:32;;;;;;;5.30;1.50;;;17.60;1.00;;;;;;4969348;28;20443;-72
2022/05/26 00:46:08;;;;;;;3.03;1.80;;;17.50;1.00;;;;;;4975907;28;20541;-72
2022/05/26 00:48:43;;;;;;;3.60;1.60;;;17.50;1.00;;;;;;4976304;28;20189;-72
2022/05/26 00:51:10;;;;;;;3.53;1.90;;;17.50;1.00;;;;;;4954835;28;20426;-71
2022/05/26 00:53:44;;;;;;;2.30;1.60;;;17.60;1.00;;;;;;4971722;28;20768;-71
2022/05/26 00:56:22;;;;;;;4.83;1.70;;;17.60;1.00;;;;;;4970193;28;20423;-72
2022/05/26 00:58:53;;;;;;;3.63;1.70;;;17.70;1.00;;;;;;4984194;28;20653;-72
2022/05/26 01:01:19;;;;;;;3.00;1.67;;;17.70;1.00;;;;;;4975452;28;20500;-72
2022/05/26 01:03:52;;;;;;;2.27;1.60;;;17.70;1.00;;;;;;4964308;28;20805;-72
2022/05/26 01:06:45;;;;;;;3.27;1.70;;;17.70;1.00;;;;;;4986604;28;20558;-72
2022/05/26 01:09:10;;;;;;;2.10;1.50;;;17.60;1.00;;;;;;4943706;28;20431;-72
2022/05/26 01:11:38;;;;;;;3.43;1.57;;;17.60;1.00;;;;;;4969329;28;20996;-72
2022/05/26 01:14:20;;;;;;;5.00;1.50;;;17.50;1.00;;;;;;4975722;28;20208;-72
2022/05/26 01:17:08;;;;;;;3.30;1.60;;;17.60;1.00;;;;;;4973348;28;20439;-72
2022/05/26 01:19:58;;;;;;;3.37;1.50;;;17.50;1.00;;;;;;4975558;28;20450;-73
2022/05/26 01:22:32;;;;;;;2.90;1.67;;;17.50;4.20;;;;;;4976783;28;20959;-72
2022/05/26 01:25:57;;;;;;;2.57;1.37;;;17.50;5.40;;;;;;4968883;28;20537;-71
2022/05/26 01:29:00;;;;;;;3.67;1.77;;;17.50;4.50;;;;;;4914253;29;20594;-72
2022/05/26 01:31:43;;;;;;;4.10;1.63;;;17.50;4.30;;;;;;4974631;28;20430;-71
2022/05/26 01:34:48;;;;;;;1.80;1.43;;;17.50;5.50;;;;;;4972443;28;20462;-72
2022/05/26 01:37:22;;;;;;;5.07;1.50;;;17.50;4.00;;;;;;4972568;28;20943;-72
2022/05/26 01:40:19;;;;;;;5.47;1.50;;;17.50;5.00;;;;;;4976487;28;20502;-72
2022/05/26 01:43:01;;;;;;;2.23;1.67;;;17.50;2.70;;;;;;4977876;28;20541;-71
2022/05/26 01:45:50;;;;;;;2.40;1.63;;;17.60;5.00;;;;;;4977156;28;20427;-72
2022/05/26 01:48:36;;;;;;;2.77;1.53;;;17.60;4.60;;;;;;4951290;28;20762;-72
2022/05/26 01:51:29;;;;;;;2.60;1.53;;;17.50;3.60;;;;;;4970533;28;20434;-72
2022/05/26 01:54:19;;;;;;;2.20;1.57;;;17.50;3.70;;;;;;4965161;28;20513;-72
2022/05/26 01:57:14;;;;;;;1.40;1.30;;;17.60;4.60;;;;;;4968244;28;20423;-71
2022/05/26 02:00:00;;;;;;;1.80;1.30;;;17.50;4.90;;;;;;4970210;28;20430;-72
2022/05/26 02:02:30;;;;;;;2.43;1.40;;;17.50;2.90;;;;;;4969433;28;20407;-73
2022/05/26 02:05:01;;;;;;;4.33;1.60;;;17.50;4.30;;;;;;4969511;28;20466;-72
2022/05/26 02:07:36;;;;;;;2.43;1.50;;;17.40;4.50;;;;;;4976895;28;20435;-72
2022/05/26 02:10:09;;;;;;;5.00;1.50;;;17.40;5.00;;;;;;4975679;28;20900;-72
2022/05/26 02:12:40;;;;;;;3.37;1.40;;;17.50;4.30;;;;;;4967876;28;20450;-72
2022/05/26 02:15:18;;;;;;;2.80;1.50;;;17.50;5.40;;;;;;4970940;28;21051;-72
2022/05/26 02:17:50;;;;;;;1.80;1.47;;;17.50;6.60;;;;;;4974147;28;20412;-72
2022/05/26 02:20:26;;;;;;;2.07;1.40;;;17.50;5.40;;;;;;4974732;28;20512;-72
2022/05/26 02:22:58;;;;;;;2.80;1.50;;;17.50;4.80;;;;;;4975200;28;20435;-72
2022/05/26 02:25:26;;;;;;;1.40;1.30;;;17.50;3.00;;;;;;4977171;28;20434;-72
2022/05/26 02:27:53;;;;;;;5.00;1.30;;;17.50;1.00;;;;;;4972793;28;20521;-72
2022/05/26 02:30:21;;;;;;;2.27;1.50;;;17.50;1.70;;;;;;4978018;28;20865;-72
2022/05/26 02:32:52;;;;;;;1.60;1.23;;;17.50;2.50;;;;;;4968036;28;20526;-71
2022/05/26 02:35:27;;;;;;;2.23;1.50;;;17.60;1.00;;;;;;4975558;28;20521;-72
2022/05/26 02:38:06;;;;;;;2.70;1.47;;;17.60;2.70;;;;;;4976771;28;20410;-72
2022/05/26 02:40:32;;;;;;;6.20;1.50;;;17.60;1.60;;;;;;4966367;28;20496;-72
2022/05/26 02:43:05;;;;;;;2.83;1.60;;;17.50;1.60;;;;;;4968950;28;20434;-71
2022/05/26 02:45:49;;;;;;;3.77;1.73;;;17.50;2.20;;;;;;4970530;28;20605;-72
2022/05/26 02:48:15;;;;;;;4.67;1.70;;;17.50;2.20;;;;;;4980488;28;20560;-72
2022/05/26 02:51:04;;;;;;;3.17;1.40;;;17.60;3.00;;;;;;4980563;28;20525;-72
2022/05/26 02:54:21;;;;;;;1.87;1.47;;;17.50;3.10;;;;;;4974175;28;20191;-72
2022/05/26 02:56:54;;;;;;;4.27;1.50;;;17.50;2.60;;;;;;4957278;28;21332;-72
2022/05/26 02:59:24;;;;;;;3.70;1.60;;;17.40;4.80;;;;;;4966766;28;20543;-72
2022/05/26 03:02:12;;;;;;;3.33;1.30;;;17.40;5.10;;;;;;4974583;28;20957;-72
2022/05/26 03:04:46;;;;;;;3.00;1.50;;;17.30;5.40;;;;;;4965345;28;20474;-72
2022/05/26 03:07:17;;;;;;;2.87;2.00;;;17.30;5.20;;;;;;4976089;28;20416;-73
2022/05/26 03:09:42;;;;;;;3.70;1.40;;;17.30;4.20;;;;;;4975762;28;20445;-72
2022/05/26 03:12:29;;;;;;;1.90;1.30;;;17.30;5.10;;;;;;4968948;28;20430;-72
2022/05/26 03:14:55;;;;;;;1.93;1.33;;;17.30;4.10;;;;;;4985777;28;20211;-72
2022/05/26 03:17:21;;;;;;;2.00;1.30;;;17.30;1.90;;;;;;4974139;28;20434;-72
2022/05/26 03:19:47;;;;;;;3.60;1.90;;;17.30;4.40;;;;;;4969604;28;20439;-72
2022/05/26 03:22:13;;;;;;;1.77;1.27;;;17.20;4.10;;;;;;4973286;28;20411;-72
2022/05/26 03:24:38;;;;;;;2.80;1.40;;;17.20;5.30;;;;;;4965282;28;20646;-71
2022/05/26 03:27:05;;;;;;;3.30;1.27;;;17.10;6.40;;;;;;4967784;28;20195;-72
2022/05/26 03:29:30;;;;;;;1.70;1.40;;;17.10;5.60;;;;;;4975758;28;20199;-72
2022/05/26 03:31:56;;;;;;;2.03;1.37;;;17.10;4.90;;;;;;4975772;28;20480;-72
2022/05/26 03:42:34;;;;;;;2.77;1.67;;;17.10;6.50;;;;;;4969143;28;20509;-72
2022/05/26 03:45:02;;;;;;;2.17;1.30;;;17.20;5.70;;;;;;4979700;28;20451;-72
2022/05/26 03:47:27;;;;;;;2.13;1.40;;;17.20;5.90;;;;;;4969064;28;20180;-72
2022/05/26 03:49:53;;;;;;;2.03;1.37;;;17.20;6.20;;;;;;4978777;28;20450;-72
2022/05/26 03:52:18;;;;;;;1.33;1.20;;;17.20;6.00;;;;;;4970247;28;20191;-72
2022/05/26 03:54:44;;;;;;;2.03;1.30;;;17.20;6.20;;;;;;4971592;28;20207;-73
2022/05/26 03:57:09;;;;;;;5.23;1.30;;;17.20;4.40;;;;;;4980552;28;20175;-72
2022/05/26 03:59:40;;;;;;;1.83;1.40;;;17.20;5.40;;;;;;4984336;28;20176;-71
2022/05/26 04:02:06;;;;;;;2.10;1.30;;;17.40;4.30;;;;;;4983096;28;20171;-72
2022/05/26 04:04:31;;;;;;;3.10;1.40;;;17.20;4.50;;;;;;4987288;28;20477;-72
2022/05/26 04:06:57;;;;;;;7.83;1.60;;;17.30;3.80;;;;;;4982419;28;20186;-72
2022/05/26 04:09:22;;;;;;;2.43;1.30;;;17.30;3.70;;;;;;4988940;28;20176;-72
2022/05/26 04:11:48;;;;;;;1.83;1.30;;;17.30;4.10;;;;;;4971415;28;21606;-71
2022/05/26 04:14:14;;;;;;;2.10;1.20;;;17.20;5.00;;;;;;4980997;28;20195;-71
2022/05/26 04:16:39;;;;;;;2.23;1.20;;;17.20;5.30;;;;;;4975901;28;20237;-72
2022/05/26 04:19:05;;;;;;;3.63;1.50;;;17.20;5.10;;;;;;4961961;28;20179;-72
2022/05/26 04:21:30;;;;;;;1.93;1.40;;;17.20;4.20;;;;;;4979791;28;20171;-72
2022/05/26 04:23:56;;;;;;;1.70;1.30;;;17.30;4.00;;;;;;4986808;28;20211;-72
2022/05/26 04:26:22;;;;;;;4.40;1.40;;;17.30;4.80;;;;;;4976912;28;20187;-72
2022/05/26 04:28:47;;;;;;;1.60;1.20;;;17.30;4.90;;;;;;4973697;28;20883;-72
2022/05/26 04:31:13;;;;;;;3.10;1.30;;;17.40;5.10;;;;;;4971842;28;20657;-72
2022/05/26 04:33:39;;;;;;;1.73;1.40;;;17.40;4.80;;;;;;4983166;28;20203;-72
2022/05/26 04:36:05;;;;;;;5.73;1.40;;;17.50;3.70;;;;;;4977832;28;20582;-71
2022/05/26 04:38:32;;;;;;;2.40;1.30;;;17.60;3.60;;;;;;4978080;28;20272;-73
2022/05/26 04:41:00;;;;;;;2.20;1.30;;;17.60;3.20;;;;;;4975402;28;20509;-72
2022/05/26 04:43:26;;;;;;;2.17;1.40;;;17.60;3.90;;;;;;4977747;28;20488;-72
2022/05/26 04:45:52;;;;;;;2.03;1.50;;;17.70;4.60;;;;;;4972147;28;20489;-72
2022/05/26 04:48:21;;;;;;;2.37;1.47;;;17.70;5.80;;;;;;4971999;28;20450;-71
2022/05/26 04:50:48;;;;;;;5.57;1.73;;;17.70;2.20;;;;;;4972823;28;20420;-71
2022/05/26 04:53:13;;;;;;;1.57;1.30;;;17.70;2.70;;;;;;4968592;28;20882;-71
2022/05/26 04:55:39;;;;;;;1.77;1.40;;;17.70;2.70;;;;;;4974086;28;20558;-71
2022/05/26 04:58:04;;;;;;;3.17;1.40;;;17.70;5.00;;;;;;4977292;28;20203;-71
2022/05/26 05:00:30;;;;;;;4.70;1.60;;;17.80;3.00;;;;;;4975541;28;20470;-71
2022/05/26 05:02:55;;;;;;;8.97;1.50;;;17.80;5.80;;;;;;4967107;28;20184;-71
2022/05/26 05:05:21;;;;;;;2.53;1.40;;;17.80;4.70;;;;;;4973769;28;20273;-72
2022/05/26 05:07:46;;;;;;;2.93;1.40;;;17.80;4.50;;;;;;4979173;28;20642;-73
2022/05/26 05:10:12;;;;;;;2.37;1.40;;;17.80;4.80;;;;;;4970254;28;20259;-72
2022/05/26 05:12:40;;;;;;;3.20;1.40;;;17.80;5.10;;;;;;4972986;28;20659;-72
2022/05/26 05:15:12;;;;;;;2.97;1.70;;;17.90;5.40;;;;;;4976219;28;20199;-71
2022/05/26 05:17:38;;;;;;;2.87;1.60;;;18.00;6.30;;;;;;4973805;28;20434;-72
2022/05/26 05:20:04;;;;;;;2.77;1.77;;;18.00;5.50;;;;;;4970211;28;20427;-72
2022/05/26 05:22:35;;;;;;;2.27;1.50;;;18.00;3.80;;;;;;4974024;28;20188;-72
2022/05/26 05:25:04;;;;;;;2.90;1.30;;;18.00;4.70;;;;;;4971350;28;20446;-72
2022/05/26 05:27:38;;;;;;;3.20;1.70;;;18.10;5.00;;;;;;4973566;28;20915;-72
2022/05/26 05:30:15;;;;;;;2.97;1.20;;;18.10;2.40;;;;;;4978117;28;20967;-72
2022/05/26 05:32:50;;;;;;;2.10;1.77;;;18.00;4.70;;;;;;4967409;28;20573;-72
2022/05/26 05:35:21;;;;;;;2.33;1.50;;;18.10;3.70;;;;;;4979391;28;20477;-72
2022/05/26 05:37:47;;;;;;;2.33;1.57;;;18.20;3.20;;;;;;4980363;28;20511;-72
2022/05/26 05:40:13;;;;;;;2.17;1.30;;;18.20;3.30;;;;;;4989919;28;20481;-73
2022/05/26 05:42:39;;;;;;;3.93;1.50;;;18.30;4.10;;;;;;4976681;28;20844;-72
2022/05/26 05:45:05;;;;;;;2.80;1.47;;;18.40;3.20;;;;;;4968906;28;20585;-72
2022/05/26 05:47:31;;;;;;;2.23;1.40;;;18.50;2.00;;;;;;4968439;28;20454;-72
2022/05/26 05:49:56;;;;;;;4.13;1.50;;;18.50;1.50;;;;;;4971084;28;20784;-72
2022/05/26 05:52:23;;;;;;;2.70;1.43;;;18.60;1.00;;;;;;4975071;28;20251;-72
2022/05/26 05:54:49;;;;;;;2.53;1.57;;;18.80;1.00;;;;;;4971115;28;20222;-71
2022/05/26 05:57:14;;;;;;;3.50;1.60;;;18.90;1.00;;;;;;4982240;28;20419;-72
2022/05/26 05:59:40;;;;;;;2.80;1.60;;;19.00;1.00;;;;;;4969491;28;20544;-72
2022/05/26 06:02:07;;;;;;;3.73;1.70;;;19.10;1.00;;;;;;4968115;28;20207;-72
2022/05/26 06:04:41;;;;;;;2.73;1.50;;;19.20;1.00;;;;;;4965152;28;20223;-72
2022/05/26 06:07:14;;;;;;;3.80;1.50;;;19.20;1.30;;;;;;4970332;28;20426;-72
2022/05/26 06:09:39;;;;;;;3.20;1.90;;;19.40;1.00;;;;;;4969854;28;20458;-72
2022/05/26 06:12:06;;;;;;;3.50;1.83;;;19.20;1.00;;;;;;4969896;28;21008;-72
2022/05/26 06:14:31;;;;;;;4.70;1.90;;;19.20;1.00;;;;;;4968566;28;20485;-73
2022/05/26 06:16:56;;;;;;;2.73;1.80;;;19.10;1.00;;;;;;4964586;28;20204;-71
2022/05/26 06:19:22;;;;;;;2.20;1.50;;;19.10;1.00;;;;;;4953752;28;20180;-72
2022/05/26 06:21:48;;;;;;;4.87;1.80;;;19.10;1.00;;;;;;4970173;28;20176;-72
2022/05/26 06:24:13;;;;;;;3.10;1.60;;;19.10;1.00;;;;;;4976816;28;20696;-72
2022/05/26 06:26:39;;;;;;;3.13;1.70;;;19.00;1.00;;;;;;4969478;28;20185;-73
2022/05/26 06:37:38;;;;;;;6.17;2.10;;;19.70;1.00;;;;;;4937254;29;20431;-72
2022/05/26 06:40:05;;;;;;;5.00;1.70;;;19.70;1.00;;;;;;4932300;29;20412;-72
2022/05/26 06:42:31;;;;;;;3.17;1.70;;;19.50;1.00;;;;;;4947327;28;20526;-72
2022/05/26 06:44:56;;;;;;;3.10;1.80;;;19.20;1.30;;;;;;4970613;28;20962;-71
2022/05/26 06:47:22;;;;;;;3.67;1.70;;;19.10;1.90;;;;;;4963417;28;20694;-72
2022/05/26 06:49:49;;;;;;;2.60;1.47;;;19.00;4.20;;;;;;4982363;28;20266;-79
2022/05/26 06:52:17;;;;;;;7.23;1.50;;;19.00;2.80;;;;;;4988188;28;20266;-79
2022/05/26 06:54:45;;;;;;;9.07;1.97;;;18.90;2.20;;;;;;4969087;28;20527;-76
2022/05/26 06:57:12;;;;;;;4.30;1.50;;;19.40;1.00;;;;;;4969574;28;20431;-75
2022/05/26 06:59:38;;;;;;;3.43;1.47;;;19.40;1.00;;;;;;4970739;28;20438;-76
2022/05/26 07:02:06;;;;;;;2.40;1.40;;;19.40;1.00;;;;;;4969471;28;20415;-77
2022/05/26 07:04:32;;;;;;;2.83;1.50;;;19.50;1.00;;;;;;4961338;28;20459;-76
2022/05/26 07:06:57;;;;;;;2.80;1.53;;;19.80;1.00;;;;;;4958154;28;20435;-80
2022/05/26 07:09:24;;;;;;;3.13;1.40;;;19.90;1.00;;;;;;4967260;28;20199;-76
2022/05/26 07:11:50;;;;;;;2.50;1.40;;;20.50;1.00;;;;;;4970412;28;20310;-77
2022/05/26 07:14:15;;;;;;;3.50;1.60;;;20.10;1.00;;;;;;4968155;28;20593;-72
2022/05/26 07:16:44;;;;;;;2.30;1.60;;;20.10;1.00;;;;;;4968112;28;20176;-71
2022/05/26 07:19:12;;;;;;;3.27;1.50;;;20.20;1.00;;;;;;4958099;28;20254;-71
2022/05/26 07:21:37;;;;;;;6.90;1.53;;;20.10;1.00;;;;;;4969734;28;20413;-71
2022/05/26 07:24:03;;;;;;;4.90;1.40;;;20.40;1.00;;;;;;4973539;28;20433;-71
2022/05/26 07:26:32;;;;;;;4.07;1.90;;;20.30;1.00;;;;;;4981088;28;20227;-73
2022/05/26 07:28:58;;;;;;;2.90;1.70;;;20.20;1.00;;;;;;4978749;28;20277;-72
2022/05/26 07:31:24;;;;;;;4.20;1.50;;;20.10;1.00;;;;;;4973245;28;20498;-72
2022/05/26 07:33:49;;;;;;;5.23;1.57;;;20.00;1.00;;;;;;4966164;28;20457;-72
2022/05/26 07:41:45;;;;;;;2.47;1.60;;;20.20;1.00;;;;;;4979207;28;20794;-74
2022/05/26 07:44:11;;;;;;;3.97;1.33;;;20.20;1.00;;;;;;4966946;28;20454;-72
2022/05/26 07:46:37;;;;;;;5.30;1.70;;;20.50;1.00;;;;;;4964889;28;20438;-72
2022/05/26 07:49:05;;;;;;;2.53;1.50;;;20.70;1.00;;;;;;4948797;29;20416;-72
2022/05/26 07:51:31;;;;;;;4.07;1.80;;;21.00;1.00;;;;;;4951231;28;20179;-71
2022/05/26 07:54:00;;;;;;;2.30;1.40;;;21.20;1.00;;;;;;4978514;28;20733;-72
2022/05/26 07:56:30;;;;;;;4.30;1.77;;;21.70;1.00;;;;;;4968606;28;20448;-72
2022/05/26 07:58:55;;;;;;;3.50;1.70;;;21.90;1.00;;;;;;4968376;28;20443;-72
2022/05/26 08:01:21;;;;;;;4.20;1.83;;;22.20;1.00;;;;;;4966192;28;20840;-72
2022/05/26 08:03:46;;;;;;;2.27;1.50;;;22.20;1.00;;;;;;4967016;28;20214;-72
2022/05/26 08:06:13;;;;;;;3.60;1.80;;;22.30;1.00;;;;;;4969671;28;20238;-72
2022/05/26 08:08:39;;;;;;;4.77;1.70;;;22.30;1.00;;;;;;4969925;28;20167;-71
2022/05/26 08:11:05;;;;;;;3.47;1.60;;;22.60;1.00;;;;;;4968297;28;20485;-71
2022/05/26 08:13:31;;;;;;;3.23;1.80;;;22.70;1.00;;;;;;4970121;28;20198;-72
2022/05/26 08:15:57;;;;;;;2.83;1.83;;;22.70;1.00;;;;;;4965794;28;20212;-71
2022/05/26 08:18:23;;;;;;;5.00;1.60;;;22.80;1.00;;;;;;4963423;28;20168;-72
2022/05/26 08:20:49;;;;;;;3.30;1.90;;;22.60;1.00;;;;;;4969220;28;20884;-72
2022/05/26 08:23:14;;;;;;;3.00;1.73;;;22.70;1.00;;;;;;4966344;28;20180;-72
2022/05/26 08:25:40;;;;;;;5.63;1.80;;;22.70;1.00;;;;;;4968753;28;20534;-72
2022/05/26 08:28:06;;;;;;;2.93;1.40;;;22.70;1.00;;;;;;4973005;28;20526;-72
2022/05/26 08:30:32;;;;;;;3.13;1.47;;;22.50;1.00;;;;;;4972717;28;20194;-71
2022/05/26 08:32:57;;;;;;;4.43;1.73;;;22.70;1.00;;;;;;4979149;28;20517;-71
2022/05/26 08:35:23;;;;;;;2.20;1.40;;;22.90;1.00;;;;;;4973090;28;20231;-72
2022/05/26 08:37:49;;;;;;;3.30;1.50;;;23.20;1.00;;;;;;4974859;28;20171;-72
2022/05/26 08:40:34;;;;;;;3.40;1.77;;;23.00;1.00;;;;;;4971983;28;20561;-72
2022/05/26 08:43:03;;;;;;;3.13;1.63;;;23.20;1.00;;;;;;4970744;28;20190;-71
2022/05/26 08:45:31;;;;;;;4.00;1.50;;;23.00;1.00;;;;;;4972581;28;20501;-72
2022/05/26 08:47:57;;;;;;;3.17;1.57;;;22.80;1.00;;;;;;4962347;28;20426;-72
2022/05/26 08:50:26;;;;;;;2.87;1.80;;;22.90;1.00;;;;;;4971144;28;20513;-72
2022/05/26 08:53:00;;;;;;;3.57;1.63;;;23.00;1.00;;;;;;4970485;28;20237;-71
2022/05/26 08:55:33;;;;;;;2.67;1.77;;;22.60;1.00;;;;;;4970399;28;20549;-72
2022/05/26 08:58:13;;;;;;;3.73;1.57;;;22.70;1.00;;;;;;4971266;28;20410;-71
2022/05/26 09:00:41;;;;;;;3.57;1.50;;;22.90;1.00;;;;;;4970612;28;20434;-71
2022/05/26 09:03:34;;;;;;;3.33;1.80;;;22.60;1.00;;;;;;4965234;28;20421;-72
2022/05/26 09:06:09;;;;;;;4.00;1.90;;;22.20;1.00;;;;;;4971178;28;20464;-71
2022/05/26 09:14:33;;;;;;;2.60;1.80;;;21.70;1.00;;;;;;4971221;28;20451;-71
2022/05/26 09:17:04;;;;;;;3.67;1.60;;;21.70;1.00;;;;;;4960650;28;20410;-72
2022/05/26 09:19:53;;;;;;;2.23;1.50;;;21.90;1.00;;;;;;4967769;28;20782;-72
2022/05/26 09:22:26;;;;;;;3.57;1.57;;;21.90;1.00;;;;;;4971643;28;20422;-71
2022/05/26 09:24:52;;;;;;;2.93;1.60;;;22.00;1.00;;;;;;4971917;28;20470;-72
2022/05/26 09:27:28;;;;;;;2.40;1.60;;;22.00;1.00;;;;;;4972008;28;20837;-72
2022/05/26 09:29:55;;;;;;;2.90;1.53;;;22.00;1.00;;;;;;4971746;28;20213;-72
2022/05/26 09:32:29;;;;;;;4.10;1.60;;;21.80;1.00;;;;;;4971230;28;20426;-71
2022/05/26 09:35:23;;;;;;;6.30;1.90;;;21.30;1.00;;;;;;4969293;28;20462;-72
2022/05/26 09:37:58;;;;;;;3.20;1.90;;;21.10;1.00;;;;;;4967622;28;20457;-71
2022/05/26 09:40:40;;;;;;;3.67;1.80;;;21.10;1.00;;;;;;4962523;28;20426;-71
2022/05/26 09:43:25;;;;;;;5.20;1.90;;;21.40;1.00;;;;;;4968667;28;20402;-71
2022/05/26 09:45:57;;;;;;;3.60;1.70;;;21.80;1.00;;;;;;4960944;28;20423;-72
2022/05/26 09:48:24;;;;;;;3.20;1.50;;;22.00;1.00;;;;;;4963970;28;20464;-71
2022/05/26 09:51:21;;;;;;;3.47;1.57;;;22.40;1.00;;;;;;4970777;28;20410;-72
2022/05/26 09:53:50;;;;;;;3.60;1.87;;;22.60;1.00;;;;;;4977536;28;21008;-72
2022/05/26 09:56:40;;;;;;;2.60;1.50;;;22.30;1.00;;;;;;4987280;28;20422;-72
2022/05/26 09:59:28;;;;;;;3.17;1.90;;;22.20;1.00;;;;;;4974781;28;20438;-71
2022/05/26 10:02:04;;;;;;;4.70;1.70;;;22.20;1.00;;;;;;4967848;28;20421;-72
2022/05/26 10:05:01;;;;;;;3.67;1.67;;;21.90;1.00;;;;;;4969322;28;20457;-73
2022/05/26 10:07:46;;;;;;;3.80;1.80;;;21.90;1.00;;;;;;4969465;28;20426;-71
2022/05/26 10:10:22;;;;;;;2.73;1.73;;;22.10;1.00;;;;;;4968997;28;20780;-72
2022/05/26 10:12:58;;;;;;;3.27;1.80;;;22.60;1.00;;;;;;4969217;28;20414;-71
2022/05/26 10:15:26;;;;;;;3.03;1.60;;;22.90;1.00;;;;;;4961673;28;20451;-70
2022/05/26 10:18:33;;;;;;;4.10;1.67;;;22.90;1.00;;;;;;4979298;28;20414;-72
2022/05/26 10:21:26;;;;;;;2.60;1.50;;;22.70;1.00;;;;;;4996817;28;20432;-70
2022/05/26 10:24:13;;;;;;;4.40;1.53;;;22.30;1.00;;;;;;4989024;28;20506;-72
2022/05/26 10:26:49;;;;;;;4.70;2.00;;;22.00;1.00;;;;;;4950582;28;20404;-71
2022/05/26 10:29:34;;;;;;;3.30;1.90;;;21.80;1.00;;;;;;4951356;28;20852;-72
2022/05/26 10:32:14;;;;;;;4.67;1.80;;;21.60;1.00;;;;;;4967951;28;20413;-71
2022/05/26 10:34:50;;;;;;;3.17;2.00;;;21.30;1.00;;;;;;4976713;28;20552;-72
2022/05/26 10:37:36;;;;;;;4.73;2.30;;;21.30;1.00;;;;;;4969289;28;20434;-72
2022/05/26 10:40:08;;;;;;;5.77;1.83;;;21.50;1.00;;;;;;4968986;28;20777;-72
2022/05/26 10:42:48;;;;;;;3.50;2.00;;;21.70;1.00;;;;;;4967082;28;20419;-71
2022/05/26 10:45:21;;;;;;;4.33;1.87;;;21.80;1.00;;;;;;4969793;28;20453;-72
2022/05/26 10:47:52;;;;;;;2.60;1.50;;;22.40;1.00;;;;;;4960613;28;20411;-72
2022/05/26 10:50:30;;;;;;;6.37;1.77;;;23.00;1.00;;;;;;4969292;28;20419;-71
2022/05/26 10:53:16;;;;;;;3.37;1.70;;;23.10;1.00;;;;;;4969207;28;20969;-72
2022/05/26 10:55:50;;;;;;;7.50;1.87;;;23.30;1.00;;;;;;4969802;28;20454;-71
2022/05/26 10:58:29;;;;;;;2.93;1.67;;;23.80;1.00;;;;;;4969244;28;20854;-72
2022/05/26 11:01:01;;;;;;;3.73;1.97;;;23.70;1.00;;;;;;4968669;28;20844;-72
2022/05/26 11:03:36;;;;;;;5.57;1.80;;;24.00;1.00;;;;;;4969556;28;20833;-71
2022/05/26 11:06:20;;;;;;;2.10;1.40;;;24.10;1.00;;;;;;4970440;28;20429;-72
2022/05/26 11:08:58;;;;;;;3.07;1.63;;;23.70;1.00;;;;;;4970699;28;20522;-72
2022/05/26 11:11:35;;;;;;;4.00;1.60;;;23.40;1.00;;;;;;4967720;28;20449;-71
2022/05/26 11:17:22;;;;;;;2.13;1.30;;;23.10;1.00;;;;;;4957148;28;21159;-72
2022/05/26 11:19:50;;;;;;;3.47;1.70;;;22.80;1.00;;;;;;4950449;29;20411;-72
2022/05/26 11:22:16;;;;;;;2.17;1.40;;;22.90;1.00;;;;;;4948786;29;21316;-72
2022/05/26 11:24:49;;;;;;;2.60;1.60;;;23.00;1.00;;;;;;4966493;28;20446;-72
2022/05/26 11:27:26;;;;;;;3.43;1.90;;;23.10;1.00;;;;;;4966414;28;20423;-71
2022/05/26 11:29:59;;;;;;;2.30;1.50;;;23.00;1.00;;;;;;4968352;28;20451;-72
2022/05/26 11:38:13;;;;;;;2.87;1.33;;;22.70;1.00;;;;;;4950941;29;20411;-72
2022/05/26 11:40:58;;;;;;;3.70;1.60;;;22.70;1.00;;;;;;4949802;28;20442;-72
2022/05/26 11:43:55;;;;;;;3.10;1.80;;;22.80;1.00;;;;;;4969311;28;20461;-72
2022/05/26 11:46:45;;;;;;;4.23;1.50;;;23.30;1.00;;;;;;4958553;28;20444;-72
2022/05/26 11:49:31;;;;;;;2.77;1.57;;;23.60;1.00;;;;;;4951667;28;20411;-71
2022/05/26 11:51:57;;;;;;;2.50;1.50;;;23.40;1.00;;;;;;4967479;28;20430;-71
2022/05/26 11:54:54;;;;;;;4.97;1.60;;;23.10;1.00;;;;;;4980947;28;20450;-72
2022/05/26 11:57:43;;;;;;;4.00;1.87;;;23.00;1.00;;;;;;4947647;28;20234;-71
2022/05/26 12:00:14;;;;;;;5.53;1.80;;;22.70;1.00;;;;;;4960363;28;20453;-72
2022/05/26 12:02:42;;;;;;;4.83;1.90;;;22.30;1.00;;;;;;4970730;28;20418;-72
2022/05/26 12:05:29;;;;;;;2.63;1.50;;;22.10;1.00;;;;;;4973562;28;20461;-72
2022/05/26 12:08:01;;;;;;;2.70;1.67;;;21.80;1.00;;;;;;4973247;28;20437;-72
2022/05/26 12:10:38;;;;;;;2.50;1.73;;;21.50;1.00;;;;;;4973847;28;20725;-71
2022/05/26 12:13:19;;;;;;;2.90;1.60;;;21.40;1.00;;;;;;4970533;28;20461;-71
2022/05/26 12:16:09;;;;;;;5.40;1.50;;;21.30;1.00;;;;;;4971147;28;20469;-71
2022/05/26 12:18:59;;;;;;;3.55;1.67;;;21.40;1.00;;;;;;4957582;28;20455;-72
2022/05/26 12:21:31;;;;;;;3.47;1.40;;;21.60;1.00;;;;;;4962969;28;20183;-72
2022/05/26 12:23:58;;;;;;;2.50;1.73;;;21.80;1.00;;;;;;4969761;28;20818;-72
2022/05/26 12:26:26;;;;;;;2.87;1.67;;;22.00;1.00;;;;;;4961304;28;20914;-72
2022/05/26 12:28:52;;;;;;;3.13;1.57;;;22.50;1.00;;;;;;4951330;29;21010;-71
2022/05/26 12:31:18;;;;;;;4.47;1.70;;;23.20;1.00;;;;;;4962053;28;20489;-72
2022/05/26 12:34:06;;;;;;;3.37;1.70;;;23.50;1.00;;;;;;4980417;28;20693;-72
2022/05/26 12:36:51;;;;;;;2.70;1.50;;;23.80;1.00;;;;;;4970913;28;20555;-72
2022/05/26 12:39:44;;;;;;;2.70;1.60;;;24.10;1.00;;;;;;4964405;28;20419;-72
2022/05/26 12:42:47;;;;;;;3.17;1.50;;;25.60;1.00;;;;;;4970339;28;20543;-72
2022/05/26 12:45:19;;;;;;;3.90;1.47;;;27.10;1.00;;;;;;4972690;28;20430;-72
2022/05/26 12:48:16;;;;;;;2.73;1.50;;;27.80;1.00;;;;;;4958750;28;20492;-71
2022/05/26 12:50:44;;;;;;;4.13;1.60;;;27.20;1.00;;;;;;4956226;28;20190;-72
2022/05/26 12:53:26;;;;;;;2.50;1.70;;;26.10;1.00;;;;;;4978875;28;20258;-73
2022/05/26 12:56:06;;;;;;;2.47;1.50;;;26.00;1.00;;;;;;4976905;28;20195;-70
2022/05/26 12:58:32;;;;;;;2.70;1.70;;;25.60;1.00;;;;;;4976090;28;20413;-72
2022/05/26 13:00:57;;;;;;;4.00;1.70;;;25.20;1.00;;;;;;4980807;28;20422;-72
2022/05/26 13:03:45;;;;;;;2.90;1.90;;;25.20;1.00;;;;;;4968652;28;20208;-72
2022/05/26 13:06:22;;;;;;;4.30;1.87;;;26.40;1.00;;;;;;4969081;28;20194;-73
2022/05/26 13:08:59;;;;;;;2.60;1.50;;;27.60;1.00;;;;;;4989037;28;20266;-72
2022/05/26 13:11:32;;;;;;;4.50;1.80;;;29.10;1.00;;;;;;4978610;28;20179;-72
2022/05/26 13:14:00;;;;;;;3.22;2.03;;;30.40;1.00;;;;;;4989282;28;20199;-72
2022/05/26 13:16:37;;;;;;;3.45;1.80;;;30.90;1.00;;;;;;4970558;28;20175;-73
2022/05/26 13:19:09;;;;;;;4.65;1.73;;;30.60;1.00;;;;;;4970568;28;20371;-72
2022/05/26 13:21:35;;;;;;;2.90;1.60;;;29.00;1.00;;;;;;4978270;28;20584;-73
2022/05/26 13:24:01;;;;;;;3.17;2.00;;;27.90;1.00;;;;;;4989536;28;20802;-74
2022/05/26 13:26:26;;;;;;;3.03;1.90;;;27.40;1.00;;;;;;4973296;28;20180;-72
2022/05/26 13:28:59;;;;;;;5.53;1.80;;;26.60;1.00;;;;;;4977604;28;20175;-72
2022/05/26 13:34:12;;;;;;;6.53;1.73;;;29.20;1.00;;;;;;4977326;28;20265;-73
2022/05/26 13:36:41;;;;;;;3.22;1.80;;;30.00;1.00;;;;;;4977503;28;20181;-74
2022/05/26 13:39:15;;;;;;;2.85;1.80;;;30.30;1.00;;;;;;4961169;28;20187;-74
2022/05/26 13:41:44;;;;;;;3.35;2.00;;;28.80;1.00;;;;;;4981196;28;20184;-76
2022/05/26 13:44:13;;;;;;;3.70;1.90;;;28.80;1.00;;;;;;4966822;28;20191;-74
2022/05/26 13:46:43;;;;;;;3.83;1.90;;;30.20;1.00;;;;;;4968199;28;20178;-73
2022/05/26 13:49:32;;;;;;;2.63;1.50;;;31.30;1.00;;;;;;4982392;28;20178;-74
2022/05/26 13:52:17;;;;;;;3.78;1.80;;;32.10;1.00;;;;;;4962314;28;20686;-73
2022/05/26 13:54:53;;;;;;;5.47;2.15;;;31.90;1.00;;;;;;4995297;28;20696;-73
2022/05/26 13:57:27;;;;;;;3.63;1.88;;;32.60;1.00;;;;;;4983126;28;20254;-75
2022/05/26 13:59:59;;;;;;;3.58;1.50;;;32.60;1.00;;;;;;4967366;28;20175;-73
2022/05/26 14:02:34;;;;;;;3.97;1.75;;;32.50;1.00;;;;;;4968167;28;20198;-74
2022/05/26 14:05:11;;;;;;;2.70;1.60;;;31.60;1.00;;;;;;4969355;28;20245;-74
2022/05/26 14:07:40;;;;;;;2.88;1.42;;;30.80;1.00;;;;;;4969868;28;20666;-73